Fort Dodge Regional Airport
KFOD : now visible

Airfield :











YOU CAN JOIN US ON...

 
LOGIN :

Register | Disclaimer

   EN    FR    IT 

 









Legend :    VFR   Marginal VFR   IFR   Intensive IFR   Very Intensive IFR
Visi :
Ceiling :
>= 8 km
>= 3000ft
5 to 8 km
1000 to 3000 ft
1500m to 5 km
500 to 1000 ft
800 to 1500m
200 to 500 ft
< 800m
< 200 ft
Symbols :   Thunderstorms  Fog  Heavy snow  Heavy precipitations  Wind > 20 kt






- Airport Elevation : 1156 ft
- IATA code : FOD


KFOD - Fort Dodge Regional

CURRENT METAR :
  • 072056Z AUTO VRB04KT 10SM CLR 26/09 A2965 RMK AO2 SLP061 T02560094 56012

EXPIRED METARs :
  • 071956Z AUTO 31006KT 10SM CLR 26/11 A2966 RMK AO2 SLP064 T02560111
  • 071856Z AUTO 32006KT 10SM CLR 24/12 A2968 RMK AO2 SLP070 T02390122

TAF KFOD
Valid from the 07 at 18:00 until the 08 at 18:00 UTC


071735Z 0718/0818 29008KT P6SM SKC
FM080000 35008KT P6SM SKC
FM080800 22004KT P6SM SKC
FM081200 25004KT P6SM SCT200
FM081400 33008G18KT P6SM BKN150



MET'MAP, your aeronautical weather chart ! - Copyright ORBIFLY December 2007 - Disclaimer

ORBIFLY MET'MAP TEAM :

Programming & Development : Alexandra Zaïnal
Concept & original design : Baudouin d'Aumeries
Assistance for programming : Marc-Olivier Méhu
Technical & hardware support : Manuel Goepfert

Contact : metmap@orbifly.com




SOURCES & CREDITS :

   NOAA       Earth
Advisory